createdAt,value
2023-03-06T00:02:15.426Z,94741.11
2023-03-06T00:04:43.513Z,94736.33
2023-03-06T00:07:11.582Z,94738.59
2023-03-06T00:09:39.650Z,94739.84
2023-03-06T00:12:08.469Z,94740.20
2023-03-06T00:14:36.416Z,94744.71
2023-03-06T00:17:04.426Z,94742.95
2023-03-06T00:19:32.488Z,94741.64
2023-03-06T00:22:00.409Z,94739.78
2023-03-06T00:24:28.908Z,94738.90
2023-03-06T00:26:56.881Z,94735.87
2023-03-06T00:29:24.993Z,94740.06
2023-03-06T00:31:53.333Z,94735.81
2023-03-06T00:34:21.487Z,94741.36
2023-03-06T00:36:49.597Z,94739.46
2023-03-06T00:39:17.651Z,94741.23
2023-03-06T00:41:47.061Z,94742.58
2023-03-06T00:44:15.435Z,94739.63
2023-03-06T00:46:43.712Z,94743.23
2023-03-06T00:49:12.007Z,94739.92
2023-03-06T00:51:40.078Z,94738.64
2023-03-06T00:54:07.990Z,94744.59
2023-03-06T00:56:36.006Z,94745.92
2023-03-06T00:59:04.283Z,94744.86
2023-03-06T01:01:32.282Z,94744.36
2023-03-06T01:04:00.331Z,94745.31
2023-03-06T01:06:28.426Z,94742.27
2023-03-06T01:08:56.482Z,94740.77
2023-03-06T01:11:26.798Z,94734.95
2023-03-06T01:13:54.879Z,94741.56
2023-03-06T01:16:23.824Z,94742.61
2023-03-06T01:18:52.039Z,94737.77
2023-03-06T01:21:20.020Z,94738.77
2023-03-06T01:23:48.082Z,94735.09
2023-03-06T01:26:16.476Z,94734.44
2023-03-06T01:28:44.739Z,94730.31
2023-03-06T01:31:12.767Z,94732.23
2023-03-06T01:33:41.095Z,94732.23
2023-03-06T01:36:11.625Z,94732.77
2023-03-06T01:38:40.048Z,94737.95
2023-03-06T01:41:08.283Z,94739.77
2023-03-06T01:43:37.965Z,94730.77
2023-03-06T01:46:21.395Z,94734.64
2023-03-06T01:48:52.064Z,94739.71
2023-03-06T01:51:20.132Z,94738.98
2023-03-06T01:53:49.136Z,94735.52
2023-03-06T01:56:17.155Z,94735.20
2023-03-06T01:58:45.900Z,94730.67
2023-03-06T02:01:14.840Z,94727.49
2023-03-06T02:03:43.780Z,94731.57
2023-03-06T02:06:12.195Z,94727.38
2023-03-06T02:08:40.444Z,94731.11
2023-03-06T02:11:08.573Z,94726.23
2023-03-06T02:13:37.214Z,94732.17
2023-03-06T02:16:05.586Z,94729.30
2023-03-06T02:18:33.805Z,94728.48
2023-03-06T02:21:13.609Z,94732.08
2023-03-06T02:24:01.958Z,94730.52
2023-03-06T02:26:30.543Z,94732.21
2023-03-06T02:28:59.542Z,94728.65
2023-03-06T02:31:30.415Z,94734.39
2023-03-06T02:34:07.869Z,94739.62
2023-03-06T02:36:41.474Z,94740.40
2023-03-06T02:39:10.558Z,94735.02
2023-03-06T02:41:38.875Z,94739.27
2023-03-06T02:44:07.639Z,94732.77
2023-03-06T02:46:36.475Z,94735.17
2023-03-06T02:49:04.603Z,94745.92
2023-03-06T02:51:32.777Z,94748.08
2023-03-06T02:54:00.802Z,94751.92
2023-03-06T02:56:28.710Z,94744.86
2023-03-06T02:58:58.229Z,94745.86
2023-03-06T03:01:26.571Z,94752.92
2023-03-06T03:03:54.681Z,94754.80
2023-03-06T03:06:23.271Z,94756.55
2023-03-06T03:08:51.653Z,94751.64
2023-03-06T03:11:19.719Z,94753.88
2023-03-06T03:13:48.711Z,94756.54
2023-03-06T03:16:21.267Z,94759.89
2023-03-06T03:18:51.348Z,94752.83
2023-03-06T03:21:20.817Z,94753.19
2023-03-06T03:23:49.313Z,94750.23
2023-03-06T03:26:18.879Z,94752.48
2023-03-06T03:28:55.584Z,94755.45
2023-03-06T03:31:23.885Z,94753.39
2023-03-06T03:33:52.502Z,94750.82
2023-03-06T03:36:20.932Z,94755.83
2023-03-06T03:38:50.234Z,94748.77
2023-03-06T03:41:18.335Z,94749.20
2023-03-06T03:43:47.309Z,94748.92
2023-03-06T03:46:15.618Z,94753.05
2023-03-06T03:48:43.881Z,94751.60
2023-03-06T03:51:13.897Z,94748.65
2023-03-06T03:53:45.164Z,94752.75
2023-03-06T03:56:14.735Z,94752.14
2023-03-06T03:58:57.905Z,94758.10
2023-03-06T04:01:27.471Z,94753.00
2023-03-06T04:03:56.201Z,94757.04
2023-03-06T04:06:24.139Z,94757.44
2023-03-06T04:08:52.900Z,94754.45
2023-03-06T04:11:21.039Z,94759.45
2023-03-06T04:13:49.575Z,94757.11
2023-03-06T04:16:18.163Z,94759.39
2023-03-06T04:18:46.438Z,94757.51
2023-03-06T04:21:14.483Z,94757.73
2023-03-06T04:23:43.122Z,94756.04
2023-03-06T04:26:11.266Z,94757.41
2023-03-06T04:28:39.307Z,94759.77
2023-03-06T04:31:07.861Z,94757.64
2023-03-06T04:33:36.494Z,94754.86
2023-03-06T04:36:04.904Z,94757.95
2023-03-06T04:38:33.527Z,94753.83
2023-03-06T04:41:02.669Z,94756.06
2023-03-06T04:43:31.027Z,94757.34
2023-03-06T04:45:59.503Z,94752.67
2023-03-06T04:48:27.656Z,94753.88
2023-03-06T04:50:55.698Z,94756.02
2023-03-06T04:53:23.774Z,94758.61
2023-03-06T04:55:51.676Z,94762.60
2023-03-06T04:58:20.940Z,94763.77
2023-03-06T05:00:49.089Z,94766.61
2023-03-06T05:03:17.394Z,94770.23
2023-03-06T05:05:46.698Z,94762.64
2023-03-06T05:08:15.721Z,94764.77
2023-03-06T05:10:44.395Z,94765.70
2023-03-06T05:13:12.859Z,94768.30
2023-03-06T05:15:42.192Z,94773.98
2023-03-06T05:18:10.231Z,94771.48
2023-03-06T05:20:38.310Z,94780.66
2023-03-06T05:23:06.387Z,94780.02
2023-03-06T05:25:34.453Z,94777.13
2023-03-06T05:28:02.750Z,94781.61
2023-03-06T05:30:31.027Z,94782.55
2023-03-06T05:32:59.972Z,94789.41
2023-03-06T05:35:28.250Z,94785.74
2023-03-06T05:37:56.736Z,94786.09
2023-03-06T05:40:24.980Z,94783.59
2023-03-06T05:42:53.031Z,94792.77
2023-03-06T05:45:21.707Z,94796.79
2023-03-06T05:47:49.921Z,94797.04
2023-03-06T05:50:18.375Z,94796.52
2023-03-06T05:52:46.488Z,94798.77
2023-03-06T05:55:15.749Z,94797.98
2023-03-06T05:57:44.020Z,94795.66
2023-03-06T06:00:13.238Z,94796.48
2023-03-06T06:02:42.377Z,94797.35
2023-03-06T06:05:12.958Z,94799.95
2023-03-06T06:07:41.774Z,94796.19
2023-03-06T06:10:11.169Z,94798.75
2023-03-06T06:12:39.320Z,94801.32
2023-03-06T06:15:08.028Z,94799.80
2023-03-06T06:17:36.109Z,94801.81
2023-03-06T06:20:04.349Z,94797.71
2023-03-06T06:22:32.533Z,94798.56
2023-03-06T06:25:00.810Z,94796.16
2023-03-06T06:27:28.815Z,94793.98
2023-03-06T06:29:57.572Z,94798.23
2023-03-06T06:32:25.594Z,94801.39
2023-03-06T06:34:54.097Z,94801.61
2023-03-06T06:37:22.476Z,94800.06
2023-03-06T06:39:50.604Z,94800.73
2023-03-06T06:42:31.450Z,94801.86
2023-03-06T06:45:01.275Z,94798.89
2023-03-06T06:47:29.804Z,94796.92
2023-03-06T06:49:57.984Z,94796.59
2023-03-06T06:52:26.297Z,94798.65
2023-03-06T06:54:54.541Z,94797.52
2023-03-06T06:57:22.567Z,94794.85
2023-03-06T06:59:53.439Z,94793.71
2023-03-06T07:02:22.059Z,94796.65
2023-03-06T07:05:03.086Z,94798.92
2023-03-06T07:07:36.706Z,94799.45
2023-03-06T07:10:06.575Z,94800.42
2023-03-06T07:12:36.231Z,94803.77
2023-03-06T07:15:05.376Z,94809.21
2023-03-06T07:17:33.476Z,94809.02
2023-03-06T07:20:02.178Z,94806.94
2023-03-06T07:22:44.772Z,94807.45
2023-03-06T07:25:19.911Z,94808.67
2023-03-06T07:27:53.437Z,94813.16
2023-03-06T07:30:23.470Z,94811.54
2023-03-06T07:32:55.496Z,94813.19
2023-03-06T07:35:23.876Z,94812.95
2023-03-06T07:37:52.360Z,94812.55
2023-03-06T07:40:21.331Z,94816.07
2023-03-06T07:42:49.736Z,94813.58
2023-03-06T07:45:20.272Z,94812.55
2023-03-06T07:47:52.239Z,94810.70
2023-03-06T07:50:21.026Z,94811.44
2023-03-06T07:52:49.644Z,94810.48
2023-03-06T07:55:18.621Z,94813.36
2023-03-06T07:57:49.551Z,94820.79
2023-03-06T08:00:18.845Z,94818.40
2023-03-06T08:02:47.107Z,94819.98
2023-03-06T08:05:16.394Z,94821.41
2023-03-06T08:07:45.276Z,94818.79
2023-03-06T08:10:14.417Z,94822.20
2023-03-06T08:12:42.496Z,94818.59
2023-03-06T08:15:11.939Z,94818.34
2023-03-06T08:17:40.082Z,94823.30
2023-03-06T08:20:08.475Z,94827.33
2023-03-06T08:22:36.576Z,94827.91
2023-03-06T08:25:06.052Z,94829.35
2023-03-06T08:27:34.657Z,94830.05
2023-03-06T08:30:03.026Z,94831.25
2023-03-06T08:32:31.651Z,94831.84
2023-03-06T08:35:02.004Z,94832.33
2023-03-06T08:37:30.215Z,94838.96
2023-03-06T08:39:59.007Z,94838.45
2023-03-06T08:42:27.466Z,94839.71
2023-03-06T08:44:55.838Z,94841.41
2023-03-06T08:47:23.806Z,94845.41
2023-03-06T08:49:51.920Z,94840.08
2023-03-06T08:52:20.124Z,94840.83
2023-03-06T08:54:48.434Z,94836.90
2023-03-06T08:57:16.508Z,94847.09
2023-03-06T08:59:44.811Z,94845.53
2023-03-06T09:02:13.249Z,94844.21
2023-03-06T09:04:42.072Z,94845.40
2023-03-06T09:07:10.029Z,94846.55
2023-03-06T09:09:38.246Z,94847.68
2023-03-06T09:12:06.698Z,94848.96
2023-03-06T09:14:34.995Z,94858.50
2023-03-06T09:17:02.917Z,94856.77
2023-03-06T09:19:30.852Z,94860.12
2023-03-06T09:22:01.452Z,94863.14
2023-03-06T09:24:29.520Z,94863.33
2023-03-06T09:26:57.575Z,94862.45
2023-03-06T09:29:25.804Z,94854.11
2023-03-06T09:31:53.978Z,94853.81
2023-03-06T09:34:22.325Z,94851.52
2023-03-06T09:36:56.578Z,94855.50
2023-03-06T09:39:26.392Z,94858.35
2023-03-06T09:41:55.452Z,94855.66
2023-03-06T09:44:26.147Z,94859.57
2023-03-06T09:47:07.268Z,94859.29
2023-03-06T09:49:41.590Z,94861.09
2023-03-06T09:52:28.360Z,94860.80
2023-03-06T09:54:59.497Z,94860.84
2023-03-06T09:57:29.227Z,94858.78
2023-03-06T10:00:03.475Z,94852.98
2023-03-06T10:02:39.202Z,94854.96
2023-03-06T10:05:12.740Z,94853.31
2023-03-06T10:07:49.467Z,94853.13
2023-03-06T10:10:19.748Z,94851.35
2023-03-06T10:12:53.685Z,94854.04
2023-03-06T10:15:24.264Z,94855.04
2023-03-06T10:17:53.469Z,94848.08
2023-03-06T10:20:24.358Z,94849.61
2023-03-06T10:23:03.204Z,94857.13
2023-03-06T10:25:37.721Z,94848.98
2023-03-06T10:28:11.921Z,94846.84
2023-03-06T10:30:49.676Z,94841.67
2023-03-06T10:33:23.091Z,94840.44
2023-03-06T10:35:53.218Z,94841.31
2023-03-06T10:38:30.804Z,94840.68
2023-03-06T10:41:17.024Z,94837.24
2023-03-06T10:44:05.312Z,94836.41
2023-03-06T10:46:34.473Z,94825.79
2023-03-06T10:49:09.314Z,94827.77
2023-03-06T10:51:37.516Z,94825.54
2023-03-06T10:54:14.869Z,94812.94
2023-03-06T10:56:43.660Z,94808.83
2023-03-06T10:59:19.254Z,94800.82
2023-03-06T11:01:51.486Z,94789.64
2023-03-06T11:04:33.479Z,94789.63
2023-03-06T11:07:15.729Z,94783.11
2023-03-06T11:09:48.134Z,94781.33
2023-03-06T11:12:23.183Z,94777.70
2023-03-06T11:15:06.705Z,94777.41
2023-03-06T11:17:36.583Z,94777.84
2023-03-06T11:20:16.064Z,94777.82
2023-03-06T11:22:49.876Z,94776.83
2023-03-06T11:25:19.058Z,94772.25
2023-03-06T11:27:51.963Z,94772.69
2023-03-06T11:30:23.798Z,94772.06
2023-03-06T11:32:57.803Z,94771.30
2023-03-06T11:35:28.577Z,94770.05
2023-03-06T11:38:00.867Z,94764.79
2023-03-06T11:40:36.839Z,94768.35
2023-03-06T11:43:23.442Z,94762.85
2023-03-06T11:46:11.767Z,94760.95
2023-03-06T11:48:46.720Z,94756.50
2023-03-06T11:51:17.583Z,94747.48
2023-03-06T11:53:45.702Z,94743.05
2023-03-06T11:56:20.352Z,94741.27
2023-03-06T11:59:07.971Z,94742.55
2023-03-06T12:01:54.905Z,94738.55
2023-03-06T12:04:43.741Z,94733.40
2023-03-06T12:07:24.229Z,94728.23
2023-03-06T12:10:11.469Z,94725.69
2023-03-06T12:13:07.284Z,94717.79
2023-03-06T12:15:41.471Z,94711.76
2023-03-06T12:18:19.998Z,94718.03
2023-03-06T12:21:01.315Z,94714.77
2023-03-06T12:23:42.377Z,94716.56
2023-03-06T12:26:29.115Z,94714.83
2023-03-06T12:28:57.046Z,94716.53
2023-03-06T12:31:34.381Z,94716.98
2023-03-06T12:34:02.486Z,94707.86
2023-03-06T12:36:52.599Z,94704.30
2023-03-06T12:39:26.295Z,94702.01
2023-03-06T12:41:54.269Z,94696.44
2023-03-06T12:44:31.551Z,94695.94
2023-03-06T12:47:08.415Z,94695.52
2023-03-06T12:49:40.397Z,94692.34
2023-03-06T12:52:09.787Z,94689.91
2023-03-06T12:54:40.033Z,94686.27
2023-03-06T12:57:09.237Z,94686.89
2023-03-06T12:59:44.352Z,94686.07
2023-03-06T13:02:35.481Z,94685.98
2023-03-06T13:05:22.526Z,94682.48
2023-03-06T13:08:09.192Z,94681.97
2023-03-06T13:10:39.413Z,94678.27
2023-03-06T13:13:26.662Z,94673.69
2023-03-06T13:16:03.949Z,94669.09
2023-03-06T13:18:35.207Z,94669.30
2023-03-06T13:21:04.707Z,94667.67
2023-03-06T13:23:32.668Z,94668.28
2023-03-06T13:26:03.585Z,94666.52
2023-03-06T13:28:41.091Z,94666.03
2023-03-06T13:31:21.303Z,94662.55
2023-03-06T13:33:54.658Z,94655.08
2023-03-06T13:36:29.031Z,94653.30
2023-03-06T13:39:01.287Z,94650.21
2023-03-06T13:41:32.164Z,94644.46
2023-03-06T13:44:19.538Z,94642.20
2023-03-06T13:46:56.611Z,94642.77
2023-03-06T13:49:25.668Z,94642.22
2023-03-06T13:51:54.284Z,94637.52
2023-03-06T13:54:47.345Z,94633.20
2023-03-06T13:57:18.598Z,94624.66
2023-03-06T13:59:54.422Z,94620.95
2023-03-06T14:02:25.093Z,94618.19
2023-03-06T14:04:53.868Z,94613.30
2023-03-06T14:07:23.275Z,94610.68
2023-03-06T14:09:59.657Z,94609.97
2023-03-06T14:12:34.071Z,94616.20
2023-03-06T14:15:11.946Z,94611.21
2023-03-06T14:17:46.511Z,94615.37
2023-03-06T14:20:16.213Z,94617.81
2023-03-06T14:22:44.407Z,94618.55
2023-03-06T14:25:18.532Z,94619.61
2023-03-06T14:27:52.534Z,94622.35
2023-03-06T14:30:25.208Z,94619.29
2023-03-06T14:32:55.049Z,94613.77
2023-03-06T14:35:25.587Z,94611.91
2023-03-06T14:37:55.803Z,94614.00
2023-03-06T14:40:30.333Z,94613.63
2023-03-06T14:43:20.426Z,94612.90
2023-03-06T14:45:49.578Z,94614.32
2023-03-06T14:48:17.547Z,94613.05
2023-03-06T14:50:53.621Z,94611.96
2023-03-06T14:53:23.324Z,94612.90
2023-03-06T14:55:53.645Z,94617.63
2023-03-06T14:58:26.127Z,94619.69
2023-03-06T15:00:56.293Z,94624.05
2023-03-06T15:03:34.463Z,94620.26
2023-03-06T15:06:03.245Z,94615.42
2023-03-06T15:08:33.879Z,94612.45
2023-03-06T15:11:03.260Z,94609.55
2023-03-06T15:13:32.178Z,94604.98
2023-03-06T15:16:00.336Z,94609.07
2023-03-06T15:18:29.913Z,94608.11
2023-03-06T15:21:07.977Z,94609.11
2023-03-06T15:23:37.982Z,94610.36
2023-03-06T15:26:24.285Z,94605.45
2023-03-06T15:29:18.575Z,94604.78
2023-03-06T15:31:46.898Z,94605.42
2023-03-06T15:34:17.584Z,94604.96
2023-03-06T15:36:49.322Z,94610.64
2023-03-06T15:39:34.334Z,94612.17
2023-03-06T15:42:04.418Z,94608.00
2023-03-06T15:44:33.329Z,94605.61
2023-03-06T15:47:09.296Z,94604.13
2023-03-06T15:49:38.772Z,94602.20
2023-03-06T15:52:07.595Z,94599.75
2023-03-06T15:54:36.100Z,94597.80
2023-03-06T15:57:05.578Z,94596.39
2023-03-06T15:59:39.075Z,94597.31
2023-03-06T16:02:16.762Z,94598.85
2023-03-06T16:04:45.668Z,94600.33
2023-03-06T16:07:14.379Z,94598.33
2023-03-06T16:09:43.127Z,94597.52
2023-03-06T16:12:15.249Z,94593.55
2023-03-06T16:14:43.861Z,94597.52
2023-03-06T16:17:12.383Z,94594.40
2023-03-06T16:19:40.799Z,94594.98
2023-03-06T16:22:09.053Z,94590.18
2023-03-06T16:24:37.485Z,94588.33
2023-03-06T16:27:05.720Z,94584.91
2023-03-06T16:29:34.184Z,94590.71
2023-03-06T16:32:02.634Z,94590.42
2023-03-06T16:34:31.154Z,94590.73
2023-03-06T16:36:59.084Z,94589.80
2023-03-06T16:39:27.102Z,94585.20
2023-03-06T16:41:55.574Z,94582.98
2023-03-06T16:44:23.747Z,94583.83
2023-03-06T16:46:51.923Z,94579.35
2023-03-06T16:49:22.446Z,94582.39
2023-03-06T16:51:51.286Z,94581.87
2023-03-06T16:54:20.192Z,94576.52
2023-03-06T16:56:48.420Z,94576.45
2023-03-06T16:59:16.401Z,94575.48
2023-03-06T17:01:44.817Z,94573.10
2023-03-06T17:04:12.953Z,94568.56
2023-03-06T17:06:42.111Z,94568.88
2023-03-06T17:09:14.658Z,94564.89
2023-03-06T17:11:47.019Z,94562.59
2023-03-06T17:14:15.107Z,94560.92
2023-03-06T17:16:43.046Z,94557.96
2023-03-06T17:19:14.416Z,94559.75
2023-03-06T17:21:43.294Z,94551.70
2023-03-06T17:24:11.462Z,94548.05
2023-03-06T17:26:40.303Z,94550.36
2023-03-06T17:29:09.657Z,94548.44
2023-03-06T17:31:38.197Z,94547.55
2023-03-06T17:34:06.465Z,94544.91
2023-03-06T17:36:34.715Z,94544.80
2023-03-06T17:39:03.245Z,94540.17
2023-03-06T17:41:33.099Z,94538.66
2023-03-06T17:44:02.052Z,94540.05
2023-03-06T17:46:32.396Z,94536.85
2023-03-06T17:49:01.021Z,94539.25
2023-03-06T17:51:29.319Z,94540.05
2023-03-06T17:53:57.633Z,94538.27
2023-03-06T17:56:26.142Z,94533.89
2023-03-06T17:58:54.740Z,94539.27
2023-03-06T18:01:23.987Z,94542.40
2023-03-06T18:03:52.097Z,94542.63
2023-03-06T18:06:22.423Z,94545.25
2023-03-06T18:08:52.688Z,94539.60
2023-03-06T18:11:21.948Z,94538.02
2023-03-06T18:13:50.515Z,94538.86
2023-03-06T18:16:20.966Z,94543.09
2023-03-06T18:18:51.904Z,94540.48
2023-03-06T18:21:20.732Z,94539.31
2023-03-06T18:23:48.794Z,94536.36
2023-03-06T18:26:27.024Z,94532.33
2023-03-06T18:28:56.461Z,94532.95
2023-03-06T18:31:30.487Z,94532.92
2023-03-06T18:34:01.042Z,94528.38
2023-03-06T18:36:31.342Z,94522.16
2023-03-06T18:39:00.889Z,94519.04
2023-03-06T18:41:28.935Z,94521.02
2023-03-06T18:43:58.427Z,94523.50
2023-03-06T18:46:29.220Z,94519.83
2023-03-06T18:48:57.663Z,94517.91
2023-03-06T18:51:26.097Z,94522.36
2023-03-06T18:53:57.017Z,94522.52
2023-03-06T18:56:25.377Z,94521.02
2023-03-06T18:58:54.091Z,94512.73
2023-03-06T19:01:23.034Z,94508.60
2023-03-06T19:03:51.246Z,94511.19
2023-03-06T19:06:20.564Z,94512.36
2023-03-06T19:08:49.217Z,94511.12
2023-03-06T19:11:18.365Z,94509.58
2023-03-06T19:13:46.327Z,94509.09
2023-03-06T19:16:18.759Z,94503.09
2023-03-06T19:18:46.978Z,94500.44
2023-03-06T19:21:16.386Z,94497.30
2023-03-06T19:23:44.832Z,94493.20
2023-03-06T19:26:13.107Z,94493.27
2023-03-06T19:28:41.598Z,94487.45
2023-03-06T19:31:09.804Z,94483.58
2023-03-06T19:33:38.249Z,94484.23
2023-03-06T19:36:08.073Z,94479.69
2023-03-06T19:38:36.654Z,94478.26
2023-03-06T19:41:04.934Z,94473.73
2023-03-06T19:43:33.132Z,94474.31
2023-03-06T19:46:01.211Z,94473.84
2023-03-06T19:48:29.357Z,94467.29
2023-03-06T19:50:57.432Z,94469.88
2023-03-06T19:53:25.735Z,94472.89
2023-03-06T19:56:01.975Z,94466.37
2023-03-06T19:58:29.896Z,94468.73
2023-03-06T20:01:08.587Z,94472.23
2023-03-06T20:03:36.948Z,94464.54
2023-03-06T20:06:09.244Z,94463.09
2023-03-06T20:08:37.509Z,94456.98
2023-03-06T20:11:05.667Z,94450.98
2023-03-06T20:13:33.596Z,94447.45
2023-03-06T20:16:04.881Z,94443.19
2023-03-06T20:18:32.952Z,94446.20
2023-03-06T20:21:01.977Z,94446.36
2023-03-06T20:23:30.841Z,94440.52
2023-03-06T20:26:06.002Z,94437.02
2023-03-06T20:28:34.152Z,94433.77
2023-03-06T20:31:11.289Z,94438.95
2023-03-06T20:33:40.048Z,94439.59
2023-03-06T20:36:15.766Z,94440.86
2023-03-06T20:38:44.285Z,94440.81
2023-03-06T20:41:17.177Z,94435.56
2023-03-06T20:43:45.231Z,94434.23
2023-03-06T20:46:14.140Z,94429.52
2023-03-06T20:48:42.809Z,94430.11
2023-03-06T20:51:18.696Z,94431.06
2023-03-06T20:53:48.201Z,94429.61
2023-03-06T20:56:17.776Z,94431.21
2023-03-06T20:58:45.821Z,94430.25
2023-03-06T21:01:26.434Z,94434.79
2023-03-06T21:03:55.024Z,94432.19
2023-03-06T21:06:23.481Z,94430.64
2023-03-06T21:08:51.561Z,94430.48
2023-03-06T21:11:19.920Z,94427.23
2023-03-06T21:13:47.966Z,94425.65
2023-03-06T21:16:18.279Z,94420.75
2023-03-06T21:18:46.953Z,94424.08
2023-03-06T21:21:19.401Z,94426.02
2023-03-06T21:23:48.415Z,94425.82
2023-03-06T21:26:21.000Z,94428.32
2023-03-06T21:28:49.581Z,94433.48
2023-03-06T21:31:19.136Z,94435.58
2023-03-06T21:33:48.808Z,94434.99
2023-03-06T21:36:18.890Z,94434.70
2023-03-06T21:38:47.811Z,94430.98
2023-03-06T21:41:26.128Z,94434.32
2023-03-06T21:43:58.588Z,94439.61
2023-03-06T21:46:27.420Z,94438.93
2023-03-06T21:48:56.077Z,94436.21
2023-03-06T21:51:25.469Z,94432.81
2023-03-06T21:53:54.206Z,94433.19
2023-03-06T21:56:24.073Z,94430.08
2023-03-06T21:58:52.681Z,94426.76
2023-03-06T22:01:22.897Z,94427.10
2023-03-06T22:03:51.623Z,94425.10
2023-03-06T22:06:21.358Z,94421.93
2023-03-06T22:08:49.682Z,94423.34
2023-03-06T22:11:19.072Z,94422.17
2023-03-06T22:13:48.403Z,94422.01
2023-03-06T22:16:18.648Z,94421.75
2023-03-06T22:18:47.675Z,94421.66
2023-03-06T22:21:16.923Z,94426.22
2023-03-06T22:23:49.060Z,94431.93
2023-03-06T22:26:17.438Z,94435.84
2023-03-06T22:28:45.838Z,94432.50
2023-03-06T22:31:15.941Z,94435.11
2023-03-06T22:33:44.162Z,94437.23
2023-03-06T22:36:13.525Z,94436.98
2023-03-06T22:38:42.817Z,94435.11
2023-03-06T22:41:11.512Z,94433.58
2023-03-06T22:43:39.883Z,94429.33
2023-03-06T22:46:09.681Z,94429.25
2023-03-06T22:48:38.500Z,94433.52
2023-03-06T22:51:08.003Z,94435.34
2023-03-06T22:53:36.111Z,94433.06
2023-03-06T22:56:05.194Z,94431.48
2023-03-06T22:58:40.507Z,94432.64
2023-03-06T23:01:13.101Z,94428.73
2023-03-06T23:03:42.846Z,94429.40
2023-03-06T23:06:15.388Z,94430.65
2023-03-06T23:08:43.971Z,94428.12
2023-03-06T23:11:14.322Z,94433.92
2023-03-06T23:14:01.179Z,94439.02
2023-03-06T23:16:48.741Z,94437.80
2023-03-06T23:19:35.657Z,94439.70
2023-03-06T23:22:22.984Z,94438.83
2023-03-06T23:25:10.162Z,94437.24
2023-03-06T23:27:38.183Z,94439.70
2023-03-06T23:30:06.629Z,94442.30
2023-03-06T23:32:35.123Z,94442.61
2023-03-06T23:35:03.445Z,94446.53
2023-03-06T23:37:31.626Z,94447.56
2023-03-06T23:39:59.799Z,94450.31
2023-03-06T23:42:27.910Z,94447.17
2023-03-06T23:44:56.153Z,94447.23
2023-03-06T23:47:24.319Z,94445.96
2023-03-06T23:49:52.248Z,94447.76
2023-03-06T23:52:20.350Z,94450.00
2023-03-06T23:54:49.441Z,94451.36
2023-03-06T23:57:17.347Z,94452.87
2023-03-06T23:59:45.485Z,94448.34
